createdAt,value
2023-01-28T00:01:52.469Z,6.29
2023-01-28T00:04:38.585Z,6.19
2023-01-28T00:07:27.847Z,6.31
2023-01-28T00:10:08.453Z,6.45
2023-01-28T00:13:19.064Z,6.62
2023-01-28T00:16:51.491Z,6.46
2023-01-28T00:39:42.422Z,5.62
2023-01-28T00:45:00.903Z,5.64
2023-01-28T00:47:34.057Z,5.99
2023-01-28T00:50:03.980Z,6.00
2023-01-28T00:52:39.950Z,5.64
2023-01-28T00:55:11.414Z,5.53
2023-01-28T00:57:44.118Z,5.45
2023-01-28T01:00:15.190Z,5.95
2023-01-28T01:02:45.419Z,5.63
2023-01-28T01:05:15.712Z,5.54
2023-01-28T01:07:48.520Z,5.20
2023-01-28T01:10:21.435Z,5.34
2023-01-28T01:12:52.553Z,5.28
2023-01-28T01:15:23.100Z,5.24
2023-01-28T01:17:54.075Z,4.97
2023-01-28T01:20:26.392Z,5.15
2023-01-28T01:22:59.320Z,5.09
2023-01-28T01:25:29.919Z,5.07
2023-01-28T01:27:59.736Z,4.89
2023-01-28T01:30:29.828Z,4.91
2023-01-28T01:33:00.533Z,5.11
2023-01-28T01:35:30.395Z,5.45
2023-01-28T01:38:02.879Z,5.26
2023-01-28T01:40:32.831Z,5.78
2023-01-28T01:43:03.765Z,5.77
2023-01-28T01:45:38.374Z,5.97
2023-01-28T01:48:18.706Z,6.46
2023-01-28T01:50:57.851Z,6.73
2023-01-28T01:53:32.742Z,6.40
2023-01-28T01:56:07.888Z,6.62
2023-01-28T01:58:43.585Z,6.56
2023-01-28T02:01:14.710Z,6.36
2023-01-28T02:03:56.003Z,6.31
2023-01-28T02:06:27.393Z,6.16
2023-01-28T02:08:59.983Z,6.33
2023-01-28T02:11:34.598Z,6.41
2023-01-28T02:14:07.687Z,6.34
2023-01-28T02:16:38.040Z,6.54
2023-01-28T02:19:10.408Z,6.35
2023-01-28T02:22:04.442Z,6.71
2023-01-28T02:25:10.729Z,6.52
2023-01-28T02:27:59.067Z,7.01
2023-01-28T02:30:36.505Z,7.22
2023-01-28T02:33:14.381Z,7.22
2023-01-28T02:35:52.433Z,7.27
2023-01-28T02:38:29.810Z,7.62
2023-01-28T02:41:09.948Z,7.68
2023-01-28T02:43:45.248Z,7.32
2023-01-28T02:46:50.418Z,7.97
2023-01-28T02:49:30.515Z,7.56
2023-01-28T02:52:42.657Z,7.56
2023-01-28T02:55:18.151Z,7.86
2023-01-28T02:58:01.275Z,7.17
2023-01-28T03:00:46.935Z,7.30
2023-01-28T03:03:24.816Z,7.04
2023-01-28T03:06:08.103Z,7.36
2023-01-28T03:08:56.949Z,7.03
2023-01-28T03:11:40.644Z,7.29
2023-01-28T03:14:25.565Z,7.31
2023-01-28T03:17:16.160Z,7.09
2023-01-28T03:19:59.098Z,6.62
2023-01-28T03:22:48.102Z,7.06
2023-01-28T03:25:36.741Z,6.78
2023-01-28T03:28:27.397Z,7.04
2023-01-28T03:31:20.735Z,6.72
2023-01-28T03:34:12.270Z,6.55
2023-01-28T03:36:53.420Z,6.67
2023-01-28T03:39:47.655Z,6.89
2023-01-28T03:42:18.911Z,7.01
2023-01-28T03:44:58.038Z,6.55
2023-01-28T03:47:30.454Z,6.90
2023-01-28T03:50:03.276Z,6.96
2023-01-28T03:52:39.765Z,6.94
2023-01-28T03:55:19.537Z,7.10
2023-01-28T03:57:50.005Z,6.69
2023-01-28T04:00:22.637Z,7.01
2023-01-28T04:02:53.079Z,7.35
2023-01-28T04:05:26.529Z,7.29
2023-01-28T04:07:57.843Z,7.51
2023-01-28T04:10:54.305Z,7.20
2023-01-28T04:13:29.346Z,7.28
2023-01-28T04:16:03.592Z,8.01
2023-01-28T04:18:37.543Z,7.51
2023-01-28T04:21:10.337Z,7.07
2023-01-28T04:23:41.887Z,7.41
2023-01-28T04:26:13.285Z,7.44
2023-01-28T04:28:43.367Z,7.34
2023-01-28T04:31:13.379Z,7.38
2023-01-28T04:34:22.712Z,7.78
2023-01-28T04:37:00.831Z,7.60
2023-01-28T04:39:45.149Z,7.47
2023-01-28T04:42:38.762Z,7.58
2023-01-28T04:45:14.750Z,7.86
2023-01-28T04:48:11.121Z,7.86
2023-01-28T04:51:01.570Z,8.44
2023-01-28T04:53:41.090Z,8.60
2023-01-28T04:56:26.642Z,8.26
2023-01-28T04:58:56.727Z,8.93
2023-01-28T05:01:27.602Z,8.37
2023-01-28T05:03:57.544Z,8.62
2023-01-28T05:06:30.468Z,8.15
2023-01-28T05:09:06.620Z,8.08
2023-01-28T05:11:39.026Z,7.98
2023-01-28T05:14:09.680Z,8.00
2023-01-28T05:16:46.750Z,7.85
2023-01-28T05:19:17.703Z,7.80
2023-01-28T05:21:49.511Z,7.99
2023-01-28T05:24:38.139Z,8.42
2023-01-28T05:27:08.015Z,8.67
2023-01-28T05:29:37.850Z,8.85
2023-01-28T05:32:08.369Z,8.94
2023-01-28T05:34:38.468Z,8.40
2023-01-28T05:37:13.752Z,8.97
2023-01-28T05:39:47.005Z,8.69
2023-01-28T05:42:18.895Z,8.99
2023-01-28T05:44:50.838Z,9.18
2023-01-28T05:47:43.064Z,8.92
2023-01-28T05:50:35.443Z,9.47
2023-01-28T05:53:16.054Z,8.87
2023-01-28T05:55:56.335Z,8.91
2023-01-28T05:58:33.486Z,9.01
2023-01-28T06:01:07.212Z,9.06
2023-01-28T06:03:45.358Z,8.58
2023-01-28T06:06:15.486Z,7.71
2023-01-28T06:08:45.332Z,7.89
2023-01-28T06:11:21.041Z,8.46
2023-01-28T06:13:51.897Z,7.81
2023-01-28T06:16:53.821Z,7.79
2023-01-28T06:19:37.836Z,7.93
2023-01-28T06:22:09.003Z,7.92
2023-01-28T06:24:39.165Z,8.04
2023-01-28T06:27:11.994Z,7.38
2023-01-28T06:29:41.804Z,7.67
2023-01-28T06:32:11.770Z,7.76
2023-01-28T06:34:41.792Z,8.21
2023-01-28T06:37:11.756Z,7.88
2023-01-28T06:39:41.585Z,8.43
2023-01-28T06:42:14.011Z,7.83
2023-01-28T06:44:43.830Z,8.07
2023-01-28T06:47:15.039Z,7.99
2023-01-28T06:49:45.004Z,7.58
2023-01-28T06:52:14.901Z,7.91
2023-01-28T06:54:44.764Z,8.22
2023-01-28T06:57:17.207Z,8.49
2023-01-28T06:59:47.098Z,8.23
2023-01-28T07:02:16.998Z,8.96
2023-01-28T07:04:46.899Z,9.21
2023-01-28T07:07:16.793Z,8.45
2023-01-28T07:09:46.619Z,8.37
2023-01-28T07:12:19.115Z,7.75
2023-01-28T07:14:49.053Z,7.91
2023-01-28T07:17:18.957Z,8.65
2023-01-28T07:19:48.829Z,9.61
2023-01-28T07:22:18.699Z,9.82
2023-01-28T07:24:48.548Z,8.54
2023-01-28T07:27:21.072Z,8.86
2023-01-28T07:29:50.963Z,8.73
2023-01-28T07:32:20.895Z,8.59
2023-01-28T07:34:50.763Z,9.69
2023-01-28T07:37:20.753Z,9.25
2023-01-28T07:39:50.833Z,8.59
2023-01-28T07:42:23.275Z,8.72
2023-01-28T07:44:55.457Z,9.05
2023-01-28T07:47:25.465Z,8.64
2023-01-28T07:49:55.469Z,8.82
2023-01-28T07:52:25.381Z,9.05
2023-01-28T07:54:55.270Z,9.80
2023-01-28T07:57:30.300Z,9.23
2023-01-28T08:00:00.422Z,8.59
2023-01-28T08:02:30.408Z,8.35
2023-01-28T08:05:01.525Z,7.95
2023-01-28T08:07:31.662Z,8.19
2023-01-28T08:10:01.574Z,8.61
2023-01-28T08:12:34.050Z,8.30
2023-01-28T08:15:05.552Z,8.29
2023-01-28T08:17:36.294Z,8.57
2023-01-28T08:20:07.290Z,9.45
2023-01-28T08:22:37.134Z,9.99
2023-01-28T08:25:07.524Z,9.38
2023-01-28T08:27:40.135Z,9.26
2023-01-28T08:30:11.923Z,9.04
2023-01-28T08:32:41.957Z,8.96
2023-01-28T08:35:12.083Z,8.70
2023-01-28T08:37:42.202Z,8.77
2023-01-28T08:40:14.251Z,8.49
2023-01-28T08:42:50.112Z,9.06
2023-01-28T08:45:22.525Z,8.27
2023-01-28T08:47:53.250Z,8.53
2023-01-28T08:50:25.550Z,8.66
2023-01-28T08:52:59.326Z,8.72
2023-01-28T08:55:30.459Z,8.85
2023-01-28T08:58:05.511Z,8.57
2023-01-28T09:00:36.600Z,9.03
2023-01-28T09:03:07.497Z,9.81
2023-01-28T09:05:38.748Z,8.87
2023-01-28T09:08:11.784Z,8.23
2023-01-28T09:10:43.149Z,8.38
2023-01-28T09:13:18.108Z,8.62
2023-01-28T09:15:48.151Z,8.26
2023-01-28T09:18:18.016Z,7.99
2023-01-28T09:20:48.672Z,8.98
2023-01-28T09:23:18.636Z,9.14
2023-01-28T09:25:48.529Z,8.79
2023-01-28T09:28:21.007Z,9.38
2023-01-28T09:30:50.849Z,8.88
2023-01-28T09:33:20.768Z,8.66
2023-01-28T09:35:50.675Z,9.21
2023-01-28T09:38:20.586Z,9.13
2023-01-28T09:40:50.774Z,9.49
2023-01-28T09:43:47.781Z,9.71
2023-01-28T09:46:20.513Z,9.47
2023-01-28T09:48:55.079Z,9.49
2023-01-28T09:51:36.378Z,9.98
2023-01-28T09:54:17.928Z,10.34
2023-01-28T09:56:54.474Z,9.96
2023-01-28T09:59:27.104Z,10.12
2023-01-28T10:02:05.675Z,9.56
2023-01-28T10:04:54.661Z,9.92
2023-01-28T10:07:37.711Z,9.92
2023-01-28T10:10:16.796Z,9.66
2023-01-28T10:13:15.668Z,9.96
2023-01-28T10:16:02.897Z,9.66
2023-01-28T10:18:39.443Z,9.97
2023-01-28T10:21:18.802Z,10.32
2023-01-28T10:23:59.769Z,9.91
2023-01-28T10:26:36.542Z,9.64
2023-01-28T10:29:16.707Z,9.97
2023-01-28T10:31:56.097Z,10.25
2023-01-28T10:34:26.340Z,9.92
2023-01-28T10:36:57.485Z,10.15
2023-01-28T10:39:30.742Z,9.95
2023-01-28T10:42:03.252Z,10.07
2023-01-28T10:44:40.696Z,10.24
2023-01-28T10:47:19.083Z,10.91
2023-01-28T10:49:56.359Z,13.77
2023-01-28T10:52:26.469Z,12.59
2023-01-28T10:55:03.245Z,11.55
2023-01-28T10:57:37.526Z,10.13
2023-01-28T11:00:24.735Z,10.61
2023-01-28T11:02:58.370Z,10.48
2023-01-28T11:05:32.030Z,11.23
2023-01-28T11:08:16.105Z,11.38
2023-01-28T11:10:47.491Z,11.83
2023-01-28T11:13:23.108Z,11.36
2023-01-28T11:15:55.713Z,11.54
2023-01-28T11:18:30.969Z,11.87
2023-01-28T11:21:04.199Z,10.86
2023-01-28T11:23:39.252Z,10.64
2023-01-28T11:26:16.977Z,10.48
2023-01-28T11:28:47.479Z,11.03
2023-01-28T11:31:23.560Z,10.76
2023-01-28T11:34:01.224Z,11.10
2023-01-28T11:36:33.231Z,11.10
2023-01-28T11:39:05.631Z,11.72
2023-01-28T11:41:39.013Z,10.80
2023-01-28T11:44:20.572Z,10.68
2023-01-28T11:47:15.808Z,10.79
2023-01-28T11:50:21.183Z,10.51
2023-01-28T11:53:17.461Z,10.45
2023-01-28T11:56:04.144Z,10.32
2023-01-28T11:58:47.404Z,10.47
2023-01-28T12:01:27.186Z,10.38
2023-01-28T12:04:21.663Z,9.71
2023-01-28T12:07:17.570Z,9.60
2023-01-28T12:09:58.512Z,9.58
2023-01-28T12:12:59.940Z,10.02
2023-01-28T12:15:57.517Z,9.73
2023-01-28T12:18:46.608Z,9.56
2023-01-28T12:21:28.395Z,9.94
2023-01-28T12:24:19.673Z,9.39
2023-01-28T12:27:00.701Z,8.79
2023-01-28T12:29:43.993Z,8.89
2023-01-28T12:32:39.354Z,8.62
2023-01-28T12:35:25.588Z,8.45
2023-01-28T12:38:10.123Z,8.87
2023-01-28T12:40:59.155Z,8.81
2023-01-28T12:43:45.559Z,9.58
2023-01-28T12:46:35.351Z,9.61
2023-01-28T12:49:12.431Z,8.80
2023-01-28T12:51:57.478Z,9.67
2023-01-28T12:54:34.147Z,9.51
2023-01-28T12:57:07.613Z,9.11
2023-01-28T12:59:45.561Z,8.24
2023-01-28T13:02:30.452Z,8.14
2023-01-28T13:05:11.810Z,8.52
2023-01-28T13:07:49.402Z,8.38
2023-01-28T13:10:27.806Z,8.76
2023-01-28T13:13:02.356Z,8.64
2023-01-28T13:15:34.466Z,8.96
2023-01-28T13:18:07.308Z,8.83
2023-01-28T13:20:48.634Z,8.24
2023-01-28T13:23:27.717Z,7.93
2023-01-28T13:25:59.217Z,7.76
2023-01-28T13:28:34.721Z,8.12
2023-01-28T13:31:07.667Z,8.24
2023-01-28T13:33:40.321Z,7.80
2023-01-28T13:36:27.378Z,8.54
2023-01-28T13:39:07.759Z,8.33
2023-01-28T13:41:42.211Z,8.41
2023-01-28T13:44:32.529Z,8.04
2023-01-28T13:47:17.560Z,9.08
2023-01-28T13:49:52.407Z,8.65
2023-01-28T13:52:29.350Z,8.34
2023-01-28T13:55:06.889Z,7.71
2023-01-28T13:58:18.404Z,8.22
2023-01-28T14:01:26.822Z,8.99
2023-01-28T14:04:27.485Z,7.75
2023-01-28T14:07:20.806Z,7.55
2023-01-28T14:10:12.317Z,7.19
2023-01-28T14:13:06.684Z,7.35
2023-01-28T14:16:06.309Z,7.41
2023-01-28T14:18:42.829Z,7.68
2023-01-28T14:21:16.139Z,7.63
2023-01-28T14:23:51.237Z,7.23
2023-01-28T14:26:46.652Z,6.96
2023-01-28T14:29:30.075Z,6.69
2023-01-28T14:32:10.900Z,6.56
2023-01-28T14:34:41.944Z,6.73
2023-01-28T14:37:17.129Z,6.26
2023-01-28T14:39:51.445Z,6.75
2023-01-28T14:42:26.141Z,9.50
2023-01-28T14:45:13.358Z,7.75
2023-01-28T14:48:11.404Z,6.72
2023-01-28T14:51:04.708Z,6.56
2023-01-28T14:53:50.397Z,6.65
2023-01-28T14:56:35.470Z,7.61
2023-01-28T14:59:15.406Z,8.54
2023-01-28T15:01:48.471Z,8.83
2023-01-28T15:04:31.672Z,8.66
2023-01-28T15:07:17.970Z,8.43
2023-01-28T15:09:48.449Z,7.94
2023-01-28T15:12:20.496Z,9.15
2023-01-28T15:14:50.524Z,9.10
2023-01-28T15:17:28.913Z,8.80
2023-01-28T15:20:02.650Z,9.48
2023-01-28T15:22:32.747Z,9.78
2023-01-28T15:25:02.769Z,9.04
2023-01-28T15:27:34.247Z,8.59
2023-01-28T15:30:04.219Z,8.21
2023-01-28T15:32:34.750Z,7.84
2023-01-28T15:35:15.600Z,8.38
2023-01-28T15:37:45.553Z,8.84
2023-01-28T15:40:23.241Z,10.38
2023-01-28T15:42:55.529Z,11.64
2023-01-28T15:45:28.221Z,10.00
2023-01-28T15:48:09.028Z,8.35
2023-01-28T15:50:44.564Z,7.99
2023-01-28T15:53:16.999Z,7.70
2023-01-28T15:55:47.779Z,7.54
2023-01-28T15:58:33.609Z,6.47
2023-01-28T16:01:24.099Z,6.28
2023-01-28T16:04:05.519Z,7.04
2023-01-28T16:06:42.869Z,6.92
2023-01-28T16:09:24.684Z,8.80
2023-01-28T16:11:55.813Z,8.26
2023-01-28T16:14:29.968Z,7.77
2023-01-28T16:17:00.652Z,7.86
2023-01-28T16:19:42.105Z,8.05
2023-01-28T16:22:24.562Z,7.65
2023-01-28T16:24:56.967Z,7.80
2023-01-28T16:27:29.820Z,8.35
2023-01-28T16:29:59.906Z,7.76
2023-01-28T16:32:37.303Z,7.69
2023-01-28T16:35:18.128Z,8.53
2023-01-28T16:37:52.517Z,9.45
2023-01-28T16:40:24.950Z,9.06
2023-01-28T16:42:58.140Z,9.49
2023-01-28T16:45:29.129Z,9.82
2023-01-28T16:47:58.997Z,9.90
2023-01-28T16:50:28.905Z,10.38
2023-01-28T16:53:02.242Z,9.40
2023-01-28T16:55:32.228Z,9.43
2023-01-28T16:58:02.211Z,9.35
2023-01-28T17:00:33.376Z,9.04
2023-01-28T17:03:03.370Z,9.54
2023-01-28T17:05:33.415Z,9.68
2023-01-28T17:08:05.951Z,9.93
2023-01-28T17:10:35.864Z,9.45
2023-01-28T17:13:05.886Z,9.68
2023-01-28T17:15:37.566Z,9.35
2023-01-28T17:18:08.080Z,9.22
2023-01-28T17:20:40.474Z,9.37
2023-01-28T17:23:22.928Z,9.39
2023-01-28T17:25:53.003Z,8.89
2023-01-28T17:28:23.235Z,8.77
2023-01-28T17:30:53.200Z,9.32
2023-01-28T17:33:23.061Z,9.90
2023-01-28T17:35:52.898Z,10.34
2023-01-28T17:38:25.432Z,9.94
2023-01-28T17:40:55.854Z,9.30
2023-01-28T17:43:25.765Z,9.12
2023-01-28T17:45:55.753Z,9.01
2023-01-28T17:48:25.835Z,8.91
2023-01-28T17:50:59.539Z,9.18
2023-01-28T17:53:31.976Z,10.13
2023-01-28T17:56:01.899Z,10.35
2023-01-28T17:58:32.431Z,10.12
2023-01-28T18:01:02.524Z,9.18
2023-01-28T18:03:32.582Z,9.37
2023-01-28T18:06:04.319Z,10.28
2023-01-28T18:08:37.087Z,10.37
2023-01-28T18:11:09.846Z,10.54
2023-01-28T18:13:41.324Z,10.18
2023-01-28T18:16:16.298Z,9.66
2023-01-28T18:18:47.293Z,9.30
2023-01-28T18:21:46.583Z,8.41
2023-01-28T18:24:24.479Z,8.82
2023-01-28T18:26:55.518Z,9.73
2023-01-28T18:29:25.505Z,9.81
2023-01-28T18:31:57.099Z,9.97
2023-01-28T18:34:31.705Z,10.05
2023-01-28T18:37:03.538Z,10.22
2023-01-28T18:39:36.075Z,11.15
2023-01-28T18:42:07.324Z,11.00
2023-01-28T18:44:37.704Z,10.85
2023-01-28T18:47:07.683Z,12.05
2023-01-28T18:49:37.516Z,12.72
2023-01-28T18:52:07.504Z,13.08
2023-01-28T18:54:40.004Z,13.96
2023-01-28T18:57:10.114Z,14.27
2023-01-28T18:59:40.038Z,14.20
2023-01-28T19:02:14.185Z,13.35
2023-01-28T19:04:44.324Z,12.91
2023-01-28T19:07:19.414Z,12.81
2023-01-28T19:09:54.779Z,12.54
2023-01-28T19:12:25.158Z,12.62
2023-01-28T19:14:55.075Z,13.24
2023-01-28T19:17:24.995Z,14.83
2023-01-28T19:19:54.978Z,14.69
2023-01-28T19:22:24.887Z,13.22
2023-01-28T19:24:57.342Z,12.82
2023-01-28T19:27:27.312Z,12.12
2023-01-28T19:29:57.217Z,11.97
2023-01-28T19:32:27.933Z,11.48
2023-01-28T19:34:58.132Z,12.01
2023-01-28T19:37:28.110Z,12.63
2023-01-28T19:40:00.749Z,12.02
2023-01-28T19:42:30.668Z,12.47
2023-01-28T19:45:03.042Z,12.06
2023-01-28T19:47:33.797Z,11.69
2023-01-28T19:50:07.326Z,11.94
2023-01-28T19:52:37.584Z,11.41
2023-01-28T19:55:11.627Z,11.64
2023-01-28T19:57:44.711Z,12.64
2023-01-28T20:00:15.668Z,13.32
2023-01-28T20:02:45.588Z,13.93
2023-01-28T20:05:15.807Z,13.85
2023-01-28T20:07:45.846Z,12.25
2023-01-28T20:10:18.694Z,12.26
2023-01-28T20:12:48.548Z,12.54
2023-01-28T20:15:18.589Z,12.46
2023-01-28T20:17:48.854Z,12.91
2023-01-28T20:20:19.637Z,13.05
2023-01-28T20:22:49.475Z,13.47
2023-01-28T20:25:21.929Z,13.26
2023-01-28T20:27:51.766Z,13.07
2023-01-28T20:30:26.289Z,13.69
2023-01-28T20:32:56.170Z,13.08
2023-01-28T20:35:26.100Z,13.01
2023-01-28T20:37:55.962Z,11.83
2023-01-28T20:40:28.419Z,11.95
2023-01-28T20:42:58.374Z,12.83
2023-01-28T20:45:28.284Z,12.75
2023-01-28T20:47:58.185Z,13.14
2023-01-28T20:50:28.716Z,12.12
2023-01-28T20:52:58.609Z,12.42
2023-01-28T20:55:31.265Z,12.20
2023-01-28T20:58:01.187Z,11.78
2023-01-28T21:00:31.124Z,12.21
2023-01-28T21:03:01.455Z,12.77
2023-01-28T21:05:31.400Z,12.71
2023-01-28T21:08:01.282Z,12.07
2023-01-28T21:10:35.282Z,11.85
2023-01-28T21:13:05.137Z,11.53
2023-01-28T21:15:35.128Z,11.39
2023-01-28T21:18:05.830Z,11.74
2023-01-28T21:20:36.906Z,11.72
2023-01-28T21:23:06.803Z,12.16
2023-01-28T21:25:39.255Z,12.10
2023-01-28T21:28:09.115Z,12.02
2023-01-28T21:30:39.109Z,12.11
2023-01-28T21:33:09.344Z,11.96
2023-01-28T21:35:39.938Z,12.67
2023-01-28T21:38:10.597Z,12.46
2023-01-28T21:40:43.293Z,12.42
2023-01-28T21:43:14.933Z,11.93
2023-01-28T21:45:50.794Z,12.42
2023-01-28T21:48:23.271Z,13.26
2023-01-28T21:51:06.022Z,12.32
2023-01-28T21:53:38.076Z,14.43
2023-01-28T21:56:12.607Z,11.96
2023-01-28T21:58:54.920Z,11.78
2023-01-28T22:01:24.852Z,12.19
2023-01-28T22:03:54.776Z,11.87
2023-01-28T22:06:24.705Z,11.84
2023-01-28T22:08:54.661Z,12.40
2023-01-28T22:11:27.123Z,12.68
2023-01-28T22:13:56.953Z,12.16
2023-01-28T22:16:26.805Z,12.45
2023-01-28T22:18:56.717Z,14.06
2023-01-28T22:21:26.604Z,14.53
2023-01-28T22:23:56.771Z,13.93
2023-01-28T22:26:29.317Z,13.10
2023-01-28T22:28:59.428Z,12.50
2023-01-28T22:31:29.373Z,13.24
2023-01-28T22:33:59.482Z,13.92
2023-01-28T22:36:29.573Z,14.16
2023-01-28T22:38:59.371Z,13.83
2023-01-28T22:41:32.223Z,14.12
2023-01-28T22:44:03.852Z,14.25
2023-01-28T22:46:36.262Z,14.89
2023-01-28T22:49:06.503Z,14.73
2023-01-28T22:51:39.335Z,15.10
2023-01-28T22:54:09.287Z,14.73
2023-01-28T22:56:42.094Z,15.11
2023-01-28T22:59:16.893Z,14.02
2023-01-28T23:01:49.298Z,13.09
2023-01-28T23:04:21.749Z,12.89
2023-01-28T23:06:51.644Z,12.38
2023-01-28T23:09:24.003Z,12.37
2023-01-28T23:11:56.566Z,12.04
2023-01-28T23:14:38.880Z,12.07
2023-01-28T23:17:24.250Z,11.09
2023-01-28T23:20:12.385Z,11.31
2023-01-28T23:23:02.854Z,11.46
2023-01-28T23:25:32.740Z,11.59
2023-01-28T23:28:05.220Z,11.40
2023-01-28T23:30:36.910Z,12.11
2023-01-28T23:33:09.385Z,11.61
2023-01-28T23:35:39.370Z,10.64
2023-01-28T23:38:09.261Z,10.83
2023-01-28T23:40:39.570Z,10.97
2023-01-28T23:43:22.461Z,11.26
2023-01-28T23:45:52.380Z,11.84
2023-01-28T23:48:23.623Z,12.06
2023-01-28T23:50:57.155Z,11.69
2023-01-28T23:53:28.947Z,12.09
2023-01-28T23:55:59.034Z,12.31
2023-01-28T23:58:42.964Z,12.26
